Kongsberg, North Dakota
Current Conditions -  °F | °C
As of 7:54 PM on Sunday 23 Nov 2014 (Local Time) from KMOT Reporting Station
Light Snow Light Snow  
Wind Chill: -2°   Ceiling: 2000
Heat Index: 16°   Visibility: 9mi
Dew Point:   Wind: 24mph
Humidity: 71%   Direction: 310°NW
Pressure: 29.72"   Gusts: 33mph
Location:  47.9335°N, 100.777°W
Report Text: KMOT 240154Z 31021G29KT 9SM -SN OVC020 M09/M13 A2972 RMK AO2 PK WND 31029/0149 SLP092 P0000 T10891133
Loading
Personal Weather Stations






























Interactive Weather Map New forecast layout! Learn more

10-Day Weather Forecast

Advertisements
Track Severe Weather on mobile